Aeroporto :
LOGIN :

Iscrizione | Disclaimer

   EN    FR    IT 

 










Sommario :    VFR   VFR Marginale   IFR   IFR Intensivo   IFR Molto Intensivo
Visibilità : 
Base nubi : 
>= 8 km
>= 3000ft
5 / 8 km
1000 / 3000 ft
1500m / 5 km
500 / 1000 ft
800 / 1500m
200 / 500 ft
< 800m
< 200 ft
Simboli :   Temporali  Nebbia  Neve Forte  Precipitazioni Forti  Vento > 20 kt
SIGMETs :   Varie  Temporali  Ghiacco  Turbolenza  Onda orograficha  Ceneri Vulcaniche







- Altitudine del aeroporto : 33 ft
- Codice IATA : PLQ


EYPA - Palanga

ULTIMO METAR :
  • 240420Z VRB02KT 9999 OVC035 12/11 Q1012

METARs OBSOLETI :
  • 240350Z VRB03KT 9999 -SHRA FEW012CB BKN036 11/11 Q1012
  • 240320Z VRB04KT 9999 BKN010 OVC036 12/11 Q1012
  • 240250Z VRB03KT 9999 OVC010 12/10 Q1012
  • 240220Z VRB02KT 9999 OVC009 11/11 Q1012
  • 240150Z VRB02KT 9999 OVC006 11/11 Q1012

TAF TAF EYPA
Valido dal 24 a 00 ore il 25 a 00 ore UTC


232306Z 2400/2424 VRB05KT 5000 BR BKN005
TEMPO 2400/2403 0800 FG VV002
BECMG 2403/2404 9000 SCT020
BECMG 2406/2407 NSC
Nessun NOTAM noto per questo aeroporto.



MetMap, La meteo Aeronautica in un colpo d'occhio ! - Copyright ORBIFLY Dicembre 2007 - Disclaimer

ORBIFLY MET'MAP TEAM :

Programmazione e sviluppo : Alexandra Zaïnal
Concezione e sviluppo : Baudouin d'Aumeries
Co-Programmazione e sviluppo : Marc-Olivier Méhu
Supporto tecnico e logistico : Manuel Goepfert
Aiuto per la traduzione : Arnaldo La Scala

Contatto : metmap@orbifly.com




FONTI E CREDITI :

   NOAA